Garden Grove, Iowa
Current Conditions -  °F | °C
As of 5:15 AM on Wednesday 26 Nov 2014 (Local Time) from KI75 Reporting Station
Light Snow Light Snow  
Wind Chill: 23°   Ceiling: 500
Heat Index: 32°   Visibility: 1.7mi
Dew Point: 31°   Wind: 12mph
Humidity: 96%   Direction: 140°SE
Pressure: 29.86"   Gusts: NA
Location:  40.83°N, 93.61°W
Report Text: KI75 261115Z AUTO 14010KT 1 3/4SM -SN OVC005 00/00 A2986 RMK AO2 T00001005
Loading
Personal Weather Stations






























Interactive Weather Map New forecast layout! Learn more

10-Day Weather Forecast

Advertisements
Track Severe Weather on mobile